Markelsville, Pennsylvania
Current Conditions -  °F | °C
As of 3:56 AM on Friday 24 Oct 2014 (Local Time) from KCXY Reporting Station
Overcast Overcast  
Wind Chill: 57°   Ceiling: 3900
Heat Index: 57°   Visibility: 10mi
Dew Point: 42°   Wind: 6mph
Humidity: 57%   Direction: 300°WNW
Pressure: 29.9"   Gusts: 20mph
Location:  40.4932°N, 77.217°W
Report Text: KCXY 240756Z AUTO 30005G17KT 10SM OVC039 14/06 A2990 RMK AO2 SLP125 T01390056
Loading
Personal Weather Stations






























Interactive Weather Map
Tropical Storm Tracking
New forecast layout! Learn more

10-Day Weather Forecast

Advertisements
Track Severe Weather on mobile